Terminal Aerodrome Forecast
Issued by NWS

Home | Current Version | Previous Version | Text Only | Print | Product List | Glossary On
Versions: 1 2 3 4 5 6 7 8 9 10 11 12 13 14 15
000
FTUS43 KICT 151635 AAB
TAFHUT
TAF AMD
KHUT 151635Z 1517/1612 36017G27KT P6SM OVC025
      TEMPO 1517/1519 2SM BLSN
     FM152000 35017G27KT P6SM SKC
     FM160100 35013KT P6SM SKC=

USA.gov is the U.S. government's official web portal to all federal, state and local government web resources and services.